Time;durP1;ratioP1;P1;durP2;ratioP2;P2;SDS_P1;SDS_P2;PMS_P1;PMS_P2;Temp;Humidity;BMP_temperature;BMP_pressure;BME280_temperature;BME280_humidity;BME280_pressure;Samples;Min_cycle;Max_cycle;Signal;HPM_P1;HPM_P2
2024/04/04 00:00:33;;;;;;;11.50;6.15;;;11.50;99.90;;;;;;5023583;28;20201;-81
2024/04/04 00:03:00;;;;;;;6.05;5.35;;;11.50;99.90;;;;;;5032621;28;20263;-81
2024/04/04 00:05:28;;;;;;;7.32;5.25;;;11.50;99.90;;;;;;5030024;28;20207;-82
2024/04/04 00:07:56;;;;;;;7.65;4.68;;;11.50;99.90;;;;;;5031128;28;20236;-82
2024/04/04 00:10:25;;;;;;;7.45;5.55;;;11.50;99.90;;;;;;5030007;28;20197;-82
2024/04/04 00:12:52;;;;;;;6.07;3.97;;;11.50;99.90;;;;;;5023026;28;20209;-83
2024/04/04 00:15:19;;;;;;;6.38;3.90;;;11.40;99.90;;;;;;5026536;28;20261;-82
2024/04/04 00:17:46;;;;;;;6.68;4.20;;;11.50;99.90;;;;;;5026710;28;20201;-82
2024/04/04 00:20:14;;;;;;;9.32;4.22;;;11.50;99.90;;;;;;5022032;28;20228;-80
2024/04/04 00:22:41;;;;;;;11.68;3.85;;;11.50;99.90;;;;;;5030930;28;20248;-79
2024/04/04 00:25:09;;;;;;;6.72;4.53;;;11.50;99.90;;;;;;5047651;28;20204;-80
2024/04/04 00:27:38;;;;;;;7.97;3.72;;;11.50;99.90;;;;;;5040299;28;20248;-80
2024/04/04 00:30:06;;;;;;;6.38;3.90;;;11.40;99.90;;;;;;5034087;28;20202;-82
2024/04/04 00:32:32;;;;;;;5.47;3.88;;;11.50;99.90;;;;;;5033058;28;20225;-83
2024/04/04 00:34:59;;;;;;;9.23;4.70;;;11.50;99.90;;;;;;5025968;28;20248;-81
2024/04/04 00:37:25;;;;;;;9.82;4.70;;;11.50;99.90;;;;;;5029808;28;20463;-81
2024/04/04 00:39:53;;;;;;;9.33;4.30;;;11.50;99.90;;;;;;5027317;28;20646;-82
2024/04/04 00:42:20;;;;;;;6.65;3.60;;;11.50;99.90;;;;;;5025183;28;20444;-81
2024/04/04 00:44:48;;;;;;;11.65;4.90;;;11.50;99.90;;;;;;5033339;28;20240;-81
2024/04/04 00:47:19;;;;;;;7.25;4.32;;;11.50;99.90;;;;;;5028455;28;20236;-81
2024/04/04 00:49:46;;;;;;;5.15;4.25;;;11.50;99.90;;;;;;5038643;28;20307;-81
2024/04/04 00:52:14;;;;;;;7.13;3.70;;;11.60;99.90;;;;;;5024317;28;20225;-81
2024/04/04 00:54:50;;;;;;;14.55;5.80;;;11.60;99.90;;;;;;5046255;28;20263;-82
2024/04/04 00:57:17;;;;;;;8.38;4.45;;;11.40;99.90;;;;;;5023832;28;20635;-82
2024/04/04 00:59:47;;;;;;;10.25;4.20;;;11.60;99.90;;;;;;5038521;28;20204;-82
2024/04/04 01:02:13;;;;;;;12.30;5.68;;;11.60;99.90;;;;;;5022976;28;20197;-81
2024/04/04 01:04:40;;;;;;;6.35;4.72;;;11.60;99.90;;;;;;5038218;28;20212;-81
2024/04/04 01:07:08;;;;;;;6.43;4.30;;;11.60;99.90;;;;;;5036368;28;20228;-82
2024/04/04 01:09:35;;;;;;;8.68;4.78;;;11.60;99.90;;;;;;5039173;28;20209;-81
2024/04/04 01:12:02;;;;;;;5.25;3.90;;;11.60;99.90;;;;;;5033836;28;20232;-82
2024/04/04 01:14:29;;;;;;;7.43;5.45;;;11.60;99.90;;;;;;5030916;28;20198;-82
2024/04/04 01:16:56;;;;;;;7.75;4.38;;;11.60;99.90;;;;;;5029577;28;20229;-81
2024/04/04 01:19:23;;;;;;;7.45;4.30;;;11.50;99.90;;;;;;5042305;28;20204;-80
2024/04/04 01:21:49;;;;;;;10.95;4.82;;;11.50;99.90;;;;;;5034558;28;20198;-81
2024/04/04 01:24:18;;;;;;;12.43;6.95;;;11.50;99.90;;;;;;5044325;28;20202;-81
2024/04/04 01:26:44;;;;;;;5.35;3.95;;;11.50;99.90;;;;;;5031038;28;20217;-81
2024/04/04 01:29:11;;;;;;;8.40;4.20;;;11.50;99.90;;;;;;5043926;28;20197;-82
2024/04/04 01:31:37;;;;;;;8.45;4.60;;;11.50;99.90;;;;;;5026840;28;20957;-82
2024/04/04 01:36:29;;;;;;;6.03;4.27;;;11.60;99.90;;;;;;5103102;22;20527;-82
2024/04/04 01:38:59;;;;;;;6.65;4.00;;;11.50;99.90;;;;;;5073015;28;20584;-82
2024/04/04 01:41:28;;;;;;;6.60;3.97;;;11.50;99.90;;;;;;5069078;28;20207;-82
2024/04/04 01:43:54;;;;;;;8.13;5.13;;;11.50;99.90;;;;;;5067715;28;20200;-83
2024/04/04 01:46:21;;;;;;;6.93;4.60;;;11.50;99.90;;;;;;5059064;28;20227;-82
2024/04/04 01:48:46;;;;;;;9.30;4.28;;;11.50;99.90;;;;;;5047029;28;20455;-85
2024/04/04 01:51:13;;;;;;;9.33;3.90;;;11.50;99.90;;;;;;5041330;28;20247;-83
2024/04/04 01:53:39;;;;;;;10.75;4.90;;;11.40;99.90;;;;;;5040185;28;20455;-82
2024/04/04 01:56:07;;;;;;;6.03;3.40;;;11.50;99.90;;;;;;5040737;28;20224;-83
2024/04/04 01:58:34;;;;;;;9.70;3.88;;;11.50;99.90;;;;;;5048202;28;20456;-83
2024/04/04 02:01:01;;;;;;;9.68;3.63;;;11.50;99.90;;;;;;5040311;28;20209;-84
2024/04/04 02:03:27;;;;;;;9.57;3.60;;;11.50;99.90;;;;;;5041062;28;20616;-83
2024/04/04 02:05:54;;;;;;;9.82;4.88;;;11.50;99.90;;;;;;5045597;28;20212;-82
2024/04/04 02:08:20;;;;;;;10.82;3.75;;;11.40;99.90;;;;;;5058515;28;20196;-82
2024/04/04 02:10:47;;;;;;;6.33;3.30;;;11.30;99.90;;;;;;5066699;28;20279;-83
2024/04/04 02:13:13;;;;;;;17.67;5.25;;;11.40;99.90;;;;;;5058188;28;20444;-83
2024/04/04 02:15:42;;;;;;;5.78;3.78;;;11.40;99.90;;;;;;5048141;28;20652;-82
2024/04/04 02:18:08;;;;;;;11.50;3.97;;;11.40;99.90;;;;;;5040661;28;20274;-82
2024/04/04 02:20:35;;;;;;;11.15;3.22;;;11.40;99.90;;;;;;5035722;28;20221;-82
2024/04/04 02:23:03;;;;;;;9.20;3.78;;;11.40;99.90;;;;;;5036700;28;20205;-82
2024/04/04 02:25:30;;;;;;;13.10;3.70;;;11.40;99.90;;;;;;5033668;28;20228;-82
2024/04/04 02:27:56;;;;;;;9.55;4.03;;;11.40;99.90;;;;;;5049373;28;20208;-82
2024/04/04 02:30:23;;;;;;;13.27;3.43;;;11.40;99.90;;;;;;5045210;28;20201;-82
2024/04/04 02:32:51;;;;;;;7.20;3.38;;;11.30;99.90;;;;;;5036667;28;20487;-82
2024/04/04 02:35:18;;;;;;;7.45;4.28;;;11.30;99.90;;;;;;5040392;28;20241;-82
2024/04/04 02:37:44;;;;;;;8.70;3.88;;;11.30;99.90;;;;;;5049149;28;20220;-82
2024/04/04 02:40:12;;;;;;;9.52;4.05;;;11.30;99.90;;;;;;5036002;28;20206;-83
2024/04/04 02:42:38;;;;;;;7.63;3.28;;;11.30;99.90;;;;;;5043456;28;20253;-82
2024/04/04 02:45:07;;;;;;;9.70;4.47;;;11.30;99.90;;;;;;5040302;28;20231;-82
2024/04/04 02:47:34;;;;;;;12.27;5.18;;;11.30;99.90;;;;;;5076948;28;20218;-83
2024/04/04 02:50:03;;;;;;;7.40;3.30;;;11.10;99.90;;;;;;5063971;28;20189;-83
2024/04/04 02:52:29;;;;;;;7.47;3.13;;;11.30;99.90;;;;;;5063962;28;20225;-82
2024/04/04 02:54:56;;;;;;;4.43;3.80;;;11.30;99.90;;;;;;5058318;28;20212;-83
2024/04/04 02:57:22;;;;;;;3.75;3.03;;;11.10;99.90;;;;;;5068824;28;20189;-83
2024/04/04 02:59:49;;;;;;;7.65;3.60;;;11.30;99.90;;;;;;5057805;28;20253;-82
2024/04/04 03:02:15;;;;;;;12.52;3.80;;;11.20;99.90;;;;;;5049111;28;20195;-82
2024/04/04 03:04:42;;;;;;;10.90;3.60;;;11.20;99.90;;;;;;5052105;28;20311;-82
2024/04/04 03:07:11;;;;;;;7.93;3.25;;;11.20;99.90;;;;;;5045455;28;20444;-81
2024/04/04 03:09:38;;;;;;;5.65;3.25;;;11.20;99.90;;;;;;5056325;28;20204;-82
2024/04/04 03:12:04;;;;;;;8.45;3.25;;;11.10;99.90;;;;;;5055723;28;20228;-82
2024/04/04 03:14:31;;;;;;;12.68;3.95;;;11.10;99.90;;;;;;5045662;28;20217;-81
2024/04/04 03:16:57;;;;;;;8.40;3.78;;;11.00;99.90;;;;;;5042599;28;20200;-82
2024/04/04 03:19:24;;;;;;;4.50;2.97;;;11.00;99.90;;;;;;5040688;28;20257;-81
2024/04/04 03:21:50;;;;;;;15.55;3.17;;;10.90;99.90;;;;;;5039923;28;20448;-82
2024/04/04 03:24:18;;;;;;;8.97;3.20;;;10.90;99.90;;;;;;5038952;28;20591;-82
2024/04/04 03:26:44;;;;;;;9.05;3.10;;;10.80;99.90;;;;;;5038573;28;20495;-82
2024/04/04 03:29:11;;;;;;;9.70;3.53;;;10.80;99.90;;;;;;5039255;28;20205;-82
2024/04/04 03:31:38;;;;;;;4.22;2.70;;;10.80;99.90;;;;;;5038914;28;20620;-82
2024/04/04 03:34:05;;;;;;;8.48;3.20;;;10.70;99.90;;;;;;5037768;28;20667;-81
2024/04/04 03:36:31;;;;;;;3.78;2.40;;;10.70;99.90;;;;;;5038070;28;20243;-81
2024/04/04 03:38:58;;;;;;;3.70;2.40;;;10.60;99.90;;;;;;5037734;28;20198;-82
2024/04/04 03:41:26;;;;;;;6.65;2.88;;;10.60;99.90;;;;;;5046364;28;20445;-82
2024/04/04 03:43:53;;;;;;;7.90;3.42;;;10.60;99.90;;;;;;5037629;28;20201;-82
2024/04/04 03:46:19;;;;;;;8.55;2.83;;;10.60;99.90;;;;;;5038484;28;20229;-82
2024/04/04 03:48:46;;;;;;;6.10;2.37;;;10.60;99.90;;;;;;5030778;28;20690;-82
2024/04/04 03:51:12;;;;;;;3.63;2.92;;;10.60;99.90;;;;;;5037350;28;20501;-81
2024/04/04 03:53:39;;;;;;;4.78;2.67;;;10.50;99.90;;;;;;5045183;28;20305;-82
2024/04/04 03:56:06;;;;;;;11.02;3.25;;;10.50;99.90;;;;;;5037544;28;20252;-83
2024/04/04 03:58:34;;;;;;;6.30;3.42;;;10.50;99.90;;;;;;5037411;28;20200;-81
2024/04/04 04:01:00;;;;;;;3.40;1.80;;;10.40;99.90;;;;;;5037180;28;20216;-82
2024/04/04 04:03:27;;;;;;;6.97;4.00;;;10.20;99.90;;;;;;5041102;28;20850;-82
2024/04/04 04:05:53;;;;;;;6.47;3.22;;;10.20;99.90;;;;;;5037947;28;20979;-83
2024/04/04 04:08:20;;;;;;;6.40;2.13;;;10.10;99.90;;;;;;5040923;28;20204;-83
2024/04/04 04:10:46;;;;;;;2.72;1.98;;;10.10;99.90;;;;;;5046190;28;20841;-82
2024/04/04 04:13:13;;;;;;;6.63;1.67;;;10.10;99.90;;;;;;5037643;28;20224;-83
2024/04/04 04:15:41;;;;;;;3.20;1.73;;;10.10;99.90;;;;;;5034455;28;20479;-83
2024/04/04 04:18:08;;;;;;;3.45;2.15;;;10.00;99.90;;;;;;5037085;28;20201;-84
2024/04/04 04:23:22;;;;;;;7.55;2.22;;;10.00;99.90;;;;;;5032890;28;20214;-83
2024/04/04 04:25:52;;;;;;;6.55;1.90;;;10.00;99.90;;;;;;5040144;28;20224;-83
2024/04/04 04:28:19;;;;;;;3.40;1.92;;;10.00;99.90;;;;;;5028403;28;20205;-83
2024/04/04 04:30:51;;;;;;;6.60;1.88;;;10.10;99.90;;;;;;5036370;28;20660;-82
2024/04/04 04:33:22;;;;;;;9.82;2.35;;;9.90;99.90;;;;;;5027786;28;20766;-83
2024/04/04 04:36:02;;;;;;;5.85;2.05;;;10.10;99.90;;;;;;5033667;28;20233;-83
2024/04/04 04:38:39;;;;;;;3.63;2.03;;;10.10;99.90;;;;;;5019064;28;20199;-83
2024/04/04 04:41:06;;;;;;;9.13;2.90;;;10.10;99.90;;;;;;5042716;28;20685;-83
2024/04/04 04:43:32;;;;;;;7.68;2.80;;;10.00;99.90;;;;;;5036385;28;20231;-84
2024/04/04 04:46:01;;;;;;;8.10;2.40;;;10.10;99.90;;;;;;5035507;28;20664;-84
2024/04/04 04:48:27;;;;;;;8.48;2.42;;;10.10;99.90;;;;;;5035866;28;20490;-84
2024/04/04 04:50:54;;;;;;;6.57;2.72;;;10.10;99.90;;;;;;5037693;28;20205;-84
2024/04/04 04:53:20;;;;;;;5.97;2.53;;;10.10;99.90;;;;;;5046880;28;20229;-84
2024/04/04 04:55:48;;;;;;;5.63;1.93;;;10.10;99.90;;;;;;5068296;28;20255;-83
2024/04/04 04:58:14;;;;;;;5.65;2.25;;;10.10;99.90;;;;;;5056113;28;20459;-84
2024/04/04 05:00:41;;;;;;;7.43;2.00;;;10.10;99.90;;;;;;5057654;28;20205;-83
2024/04/04 05:03:09;;;;;;;4.13;1.55;;;10.20;99.90;;;;;;5061823;28;20212;-82
2024/04/04 05:05:36;;;;;;;7.75;2.20;;;10.10;99.90;;;;;;5053010;28;20271;-83
2024/04/04 05:08:03;;;;;;;7.93;1.70;;;10.20;99.90;;;;;;5049396;28;20656;-82
2024/04/04 05:10:30;;;;;;;5.28;1.98;;;10.20;99.90;;;;;;5041845;28;20200;-83
2024/04/04 05:12:56;;;;;;;5.97;2.55;;;10.30;99.90;;;;;;5044113;28;20267;-83
2024/04/04 05:15:23;;;;;;;6.70;2.47;;;10.30;99.90;;;;;;5041235;28;20243;-83
2024/04/04 05:17:48;;;;;;;2.92;1.67;;;10.20;99.90;;;;;;5046829;28;20435;-84
2024/04/04 05:20:17;;;;;;;7.30;2.00;;;10.20;99.90;;;;;;5040873;28;20241;-84
2024/04/04 05:22:43;;;;;;;6.13;2.22;;;10.30;99.90;;;;;;5042317;28;20451;-82
2024/04/04 05:25:14;;;;;;;5.15;2.33;;;10.20;99.90;;;;;;5061262;28;20216;-84
2024/04/04 05:27:40;;;;;;;4.60;2.45;;;10.30;99.90;;;;;;5064664;28;20260;-84
2024/04/04 05:30:10;;;;;;;6.95;2.00;;;10.50;99.90;;;;;;5059212;28;20193;-84
2024/04/04 05:32:37;;;;;;;8.57;2.05;;;10.40;99.90;;;;;;5058800;28;20206;-82
2024/04/04 05:35:06;;;;;;;3.83;1.67;;;10.40;99.90;;;;;;5068643;28;20218;-82
2024/04/04 05:37:33;;;;;;;14.23;2.78;;;10.50;99.90;;;;;;5065211;28;20188;-82
2024/04/04 05:40:04;;;;;;;7.07;2.17;;;10.60;99.90;;;;;;5056850;28;20296;-84
2024/04/04 05:42:40;;;;;;;9.25;2.10;;;10.70;99.90;;;;;;5044522;28;20203;-85
2024/04/04 05:45:07;;;;;;;6.15;2.40;;;10.80;99.90;;;;;;5050559;28;20227;-86
2024/04/04 05:47:33;;;;;;;3.75;1.90;;;10.80;99.90;;;;;;5051748;28;20201;-85
2024/04/04 05:50:00;;;;;;;10.00;2.83;;;10.80;99.90;;;;;;5050963;28;20258;-84
2024/04/04 05:52:26;;;;;;;10.45;2.10;;;10.90;99.90;;;;;;5058511;28;20549;-85
2024/04/04 05:54:55;;;;;;;4.90;2.00;;;10.90;99.90;;;;;;5053310;28;20201;-85
2024/04/04 05:57:21;;;;;;;3.75;2.30;;;11.00;99.90;;;;;;5053469;28;20443;-84
2024/04/04 05:59:48;;;;;;;8.48;1.75;;;11.00;99.90;;;;;;5050110;28;20249;-84
2024/04/04 06:02:14;;;;;;;4.85;1.90;;;11.00;99.90;;;;;;5050694;28;20293;-84
2024/04/04 06:04:41;;;;;;;8.23;1.80;;;11.10;99.90;;;;;;5050639;28;20216;-83
2024/04/04 06:07:09;;;;;;;6.47;2.42;;;11.10;99.90;;;;;;5058989;28;20205;-84
2024/04/04 06:09:36;;;;;;;5.32;1.90;;;11.10;99.90;;;;;;5053999;28;20201;-84
2024/04/04 06:12:03;;;;;;;7.25;2.08;;;11.20;99.90;;;;;;5052993;28;20644;-84
2024/04/04 06:14:30;;;;;;;9.93;1.65;;;11.10;99.90;;;;;;5049568;28;20209;-84
2024/04/04 06:16:57;;;;;;;3.38;1.90;;;11.20;99.90;;;;;;5051244;28;20220;-85
2024/04/04 06:19:24;;;;;;;5.60;2.20;;;11.30;99.90;;;;;;5049993;28;20231;-84
2024/04/04 06:21:50;;;;;;;2.42;1.73;;;11.30;99.90;;;;;;5045027;28;20625;-81
2024/04/04 06:24:17;;;;;;;5.45;2.70;;;11.20;99.90;;;;;;5043091;28;20192;-83
2024/04/04 06:26:44;;;;;;;8.25;2.72;;;11.30;99.90;;;;;;5041604;28;20212;-84
2024/04/04 06:29:12;;;;;;;5.95;3.42;;;11.30;99.90;;;;;;5041250;28;20208;-85
2024/04/04 06:31:38;;;;;;;5.07;2.28;;;11.30;99.90;;;;;;5042121;28;20208;-83
2024/04/04 06:34:06;;;;;;;6.80;2.63;;;11.40;99.90;;;;;;5051482;28;20205;-87
2024/04/04 06:36:34;;;;;;;6.43;2.30;;;11.40;99.90;;;;;;5041680;28;20461;-86
2024/04/04 06:39:03;;;;;;;6.50;1.90;;;11.60;99.90;;;;;;5043520;28;20280;-85
2024/04/04 06:41:29;;;;;;;8.85;3.00;;;11.80;99.90;;;;;;5055343;28;20267;-85
2024/04/04 06:44:10;;;;;;;8.18;2.72;;;12.20;99.90;;;;;;5062220;28;20282;-83
2024/04/04 06:46:38;;;;;;;3.28;2.28;;;12.60;99.90;;;;;;5054707;28;20185;-85
2024/04/04 06:49:05;;;;;;;14.88;3.75;;;12.60;99.90;;;;;;5052672;28;20223;-85
2024/04/04 06:51:32;;;;;;;5.10;2.95;;;12.70;99.90;;;;;;5045141;28;20201;-85
2024/04/04 06:53:59;;;;;;;6.28;2.03;;;12.60;99.90;;;;;;5048046;28;20244;-84
2024/04/04 06:56:25;;;;;;;5.85;1.90;;;12.30;99.90;;;;;;5050001;28;20274;-84
2024/04/04 06:58:56;;;;;;;6.72;2.72;;;12.30;99.90;;;;;;5046753;28;20205;-85
2024/04/04 07:01:23;;;;;;;11.70;3.58;;;12.40;99.90;;;;;;5055113;28;20216;-87
2024/04/04 07:03:53;;;;;;;4.65;2.65;;;12.20;99.90;;;;;;5039315;28;20189;-86
2024/04/04 07:06:19;;;;;;;6.18;1.80;;;12.30;99.90;;;;;;5056500;28;20247;-87
2024/04/04 07:09:09;;;;;;;9.60;2.40;;;12.40;99.90;;;;;;5054756;28;20229;-86
2024/04/04 07:11:56;;;;;;;9.18;2.45;;;12.20;99.90;;;;;;5056582;28;20463;-86
2024/04/04 07:14:23;;;;;;;3.88;2.17;;;11.90;99.90;;;;;;5057130;28;20204;-87
2024/04/04 07:17:04;;;;;;;;;;;;;;;;;;;;;
2024/04/04 07:19:33;;;;;;;3.40;1.85;;;11.90;99.90;;;;;;5053605;28;20215;-86
2024/04/04 07:21:59;;;;;;;4.50;2.25;;;11.90;99.90;;;;;;5049481;28;20197;-86
2024/04/04 07:25:07;;;;;;;8.52;2.10;;;11.80;99.90;;;;;;5054221;28;20278;-85
2024/04/04 07:27:33;;;;;;;8.77;3.08;;;11.80;99.90;;;;;;5047140;28;20209;-83
2024/04/04 07:30:00;;;;;;;3.30;1.87;;;11.60;99.90;;;;;;5042235;28;20205;-83
2024/04/04 07:32:26;;;;;;;4.13;1.98;;;11.70;99.90;;;;;;5046813;28;20908;-85
2024/04/04 07:39:59;;;;;;;10.45;3.42;;;11.70;99.90;;;;;;5036396;28;20323;-76
2024/04/04 07:42:25;;;;;;;10.43;3.33;;;11.80;99.90;;;;;;5028091;28;20247;-74
2024/04/04 07:44:52;;;;;;;6.75;3.20;;;11.80;99.90;;;;;;5035958;28;20231;-75
2024/04/04 07:47:19;;;;;;;5.63;2.00;;;11.80;99.90;;;;;;5032391;28;20235;-74
2024/04/04 07:49:46;;;;;;;4.13;2.40;;;11.70;99.90;;;;;;5031118;28;20196;-78
2024/04/04 07:52:12;;;;;;;8.02;1.92;;;11.80;99.90;;;;;;5036071;28;20275;-75
2024/04/04 07:54:39;;;;;;;5.63;2.75;;;11.80;99.90;;;;;;5033115;28;20197;-76
2024/04/04 07:57:12;;;;;;;5.70;2.30;;;11.80;99.90;;;;;;5029838;28;20224;-76
2024/04/04 07:59:39;;;;;;;10.85;2.85;;;11.90;99.90;;;;;;5033871;28;20211;-72
2024/04/04 08:02:06;;;;;;;7.20;1.80;;;11.80;99.90;;;;;;5034045;28;20201;-75
2024/04/04 08:04:33;;;;;;;4.47;2.90;;;11.60;99.90;;;;;;5032869;28;20300;-74
2024/04/04 08:06:59;;;;;;;5.38;2.63;;;11.60;99.90;;;;;;5039429;28;20231;-77
2024/04/04 08:09:26;;;;;;;6.85;2.80;;;11.40;99.90;;;;;;5030833;28;20225;-75
2024/04/04 08:11:52;;;;;;;5.10;2.65;;;11.30;99.90;;;;;;5026655;28;20665;-78
2024/04/04 08:14:22;;;;;;;10.38;2.58;;;11.30;99.90;;;;;;5026320;28;20252;-74
2024/04/04 08:16:48;;;;;;;7.18;3.10;;;11.20;99.90;;;;;;5035335;28;20228;-74
2024/04/04 08:19:15;;;;;;;8.67;3.87;;;11.20;99.90;;;;;;5034509;28;20212;-75
2024/04/04 08:21:42;;;;;;;6.72;2.35;;;11.20;99.90;;;;;;5030903;28;20539;-75
2024/04/04 08:24:09;;;;;;;6.55;2.60;;;11.20;99.90;;;;;;5034000;28;20230;-73
2024/04/04 08:26:35;;;;;;;6.10;3.10;;;11.20;99.90;;;;;;5035115;28;20278;-74
2024/04/04 08:29:02;;;;;;;3.20;2.80;;;11.20;99.90;;;;;;5038400;28;20295;-77
2024/04/04 08:31:29;;;;;;;7.28;3.65;;;11.20;99.90;;;;;;5044138;28;20200;-75
2024/04/04 08:33:56;;;;;;;7.47;2.88;;;11.20;99.90;;;;;;5047861;28;20248;-72
2024/04/04 08:36:22;;;;;;;4.20;2.58;;;11.30;99.90;;;;;;5051514;28;20224;-71
2024/04/04 08:38:50;;;;;;;8.10;3.28;;;11.30;99.90;;;;;;5061142;28;20208;-72
2024/04/04 08:41:18;;;;;;;8.02;3.70;;;11.30;99.90;;;;;;5065157;28;20207;-76
2024/04/04 08:43:46;;;;;;;8.75;3.67;;;11.30;99.90;;;;;;5056990;28;20238;-73
2024/04/04 08:46:13;;;;;;;4.97;2.72;;;11.40;99.90;;;;;;5057075;28;20236;-77
2024/04/04 08:48:42;;;;;;;5.07;3.33;;;11.40;99.90;;;;;;5057021;28;20204;-73
2024/04/04 08:51:09;;;;;;;4.85;3.05;;;11.40;99.90;;;;;;5056743;28;20291;-72
2024/04/04 08:53:37;;;;;;;5.35;3.63;;;11.40;99.90;;;;;;5053934;28;20317;-74
2024/04/04 08:56:05;;;;;;;7.68;3.13;;;11.60;99.90;;;;;;5056641;28;20232;-73
2024/04/04 08:58:32;;;;;;;5.28;2.58;;;11.60;99.90;;;;;;5056582;28;20232;-75
2024/04/04 09:00:58;;;;;;;6.93;3.60;;;11.70;99.90;;;;;;5057113;28;20219;-74
2024/04/04 09:03:25;;;;;;;10.60;3.43;;;11.80;99.90;;;;;;5048965;28;20196;-76
2024/04/04 09:05:52;;;;;;;4.53;2.90;;;11.90;99.90;;;;;;5051506;28;20467;-77
2024/04/04 09:08:20;;;;;;;5.13;2.75;;;12.10;99.90;;;;;;5056154;28;20200;-75
2024/04/04 09:10:48;;;;;;;5.90;3.45;;;12.00;99.90;;;;;;5055927;28;20234;-73
2024/04/04 09:13:15;;;;;;;3.53;2.63;;;12.10;99.90;;;;;;5047734;28;20224;-77
2024/04/04 09:15:41;;;;;;;6.57;3.00;;;12.20;99.90;;;;;;5055904;28;20559;-77
2024/04/04 09:18:10;;;;;;;2.58;2.30;;;12.20;99.90;;;;;;5048972;28;20244;-77
2024/04/04 09:20:37;;;;;;;4.07;3.67;;;12.30;99.90;;;;;;5052868;28;20205;-76
2024/04/04 09:23:07;;;;;;;3.45;3.08;;;12.30;99.90;;;;;;5053847;28;20196;-75
2024/04/04 09:25:34;;;;;;;4.25;3.85;;;12.40;99.90;;;;;;5056610;28;20223;-77
2024/04/04 09:28:03;;;;;;;3.60;3.25;;;12.30;99.90;;;;;;5057332;28;20236;-74
2024/04/04 09:30:32;;;;;;;5.35;3.30;;;12.40;99.90;;;;;;5055878;28;20250;-77
2024/04/04 09:32:59;;;;;;;3.78;2.92;;;12.50;99.90;;;;;;5056321;28;20584;-76
2024/04/04 09:35:26;;;;;;;3.78;3.47;;;12.40;99.90;;;;;;5048462;28;20200;-78
2024/04/04 09:37:53;;;;;;;5.93;3.80;;;12.40;99.90;;;;;;5057823;28;20207;-74
2024/04/04 09:40:22;;;;;;;5.57;3.47;;;12.40;99.90;;;;;;5055765;28;20203;-74
2024/04/04 09:42:49;;;;;;;5.72;4.03;;;12.40;99.90;;;;;;5055674;28;20199;-75
2024/04/04 09:45:15;;;;;;;3.67;3.25;;;12.50;99.90;;;;;;5054691;28;20211;-73
2024/04/04 09:47:45;;;;;;;4.18;3.25;;;12.50;99.90;;;;;;5055154;28;20211;-78
2024/04/04 09:50:14;;;;;;;3.83;3.00;;;12.50;99.90;;;;;;5055620;28;20261;-75
2024/04/04 09:52:41;;;;;;;4.20;3.75;;;12.60;99.90;;;;;;5055147;28;20227;-74
2024/04/04 09:55:08;;;;;;;5.25;4.22;;;12.60;99.90;;;;;;5056020;28;20212;-75
2024/04/04 09:57:38;;;;;;;2.92;2.63;;;12.60;99.90;;;;;;5056680;28;20306;-78
2024/04/04 10:00:14;;;;;;;4.35;3.20;;;12.70;99.90;;;;;;5057120;28;20196;-77
2024/04/04 10:02:47;;;;;;;11.48;9.88;;;12.60;99.90;;;;;;5037688;28;20227;-75
2024/04/04 10:05:16;;;;;;;4.53;3.28;;;12.70;99.90;;;;;;5055103;28;20211;-76
2024/04/04 10:07:45;;;;;;;3.80;3.40;;;12.70;99.90;;;;;;5055931;28;20270;-76
2024/04/04 10:10:15;;;;;;;3.67;3.33;;;12.70;99.90;;;;;;5054916;28;20215;-75
2024/04/04 10:12:45;;;;;;;5.28;3.05;;;12.70;99.90;;;;;;5055118;28;20216;-76
2024/04/04 10:15:16;;;;;;;5.20;4.35;;;12.70;99.90;;;;;;5057142;28;20230;-76
2024/04/04 10:17:45;;;;;;;6.88;2.97;;;12.70;99.90;;;;;;5056733;28;20202;-76
2024/04/04 10:20:12;;;;;;;3.20;2.90;;;12.70;99.90;;;;;;5055212;28;20277;-74
2024/04/04 10:22:40;;;;;;;3.92;3.53;;;12.70;99.90;;;;;;5055524;28;20192;-78
2024/04/04 10:25:06;;;;;;;3.95;3.55;;;12.80;99.90;;;;;;5054349;28;20259;-75
2024/04/04 10:27:33;;;;;;;4.25;3.20;;;12.80;99.90;;;;;;5054646;28;20227;-73
2024/04/04 10:30:01;;;;;;;4.50;4.18;;;12.90;99.90;;;;;;5055250;28;20208;-76
2024/04/04 10:32:31;;;;;;;5.15;3.40;;;12.90;99.90;;;;;;5054853;28;20247;-76
2024/04/04 10:35:04;;;;;;;4.80;4.30;;;13.00;99.90;;;;;;5054597;28;20203;-74
2024/04/04 10:37:31;;;;;;;8.52;4.13;;;13.00;99.90;;;;;;5046811;28;20223;-74
2024/04/04 10:39:58;;;;;;;6.05;4.68;;;12.90;99.90;;;;;;5054254;28;20273;-77
2024/04/04 10:42:26;;;;;;;7.07;4.30;;;12.90;99.90;;;;;;5054137;28;20196;-77
2024/04/04 10:44:53;;;;;;;4.53;4.13;;;13.00;99.90;;;;;;5053518;28;20240;-77
2024/04/04 10:47:22;;;;;;;5.85;5.15;;;13.10;99.90;;;;;;5054477;28;20270;-73
2024/04/04 10:49:48;;;;;;;6.43;4.57;;;13.10;99.90;;;;;;5054175;28;20269;-77
2024/04/04 10:52:16;;;;;;;8.40;4.77;;;13.10;99.90;;;;;;5055077;28;20204;-74
2024/04/04 10:54:43;;;;;;;4.60;4.13;;;13.00;99.90;;;;;;5053200;28;20513;-78
2024/04/04 10:57:10;;;;;;;5.40;4.80;;;13.10;99.90;;;;;;5053522;28;20216;-75
2024/04/04 10:59:36;;;;;;;4.18;3.55;;;13.30;99.90;;;;;;5053784;28;20226;-78
2024/04/04 11:02:07;;;;;;;5.90;4.05;;;13.40;99.90;;;;;;5051963;28;20613;-78
2024/04/04 11:04:35;;;;;;;4.00;3.70;;;13.40;99.90;;;;;;5053889;28;20209;-73
2024/04/04 11:07:05;;;;;;;5.03;4.10;;;13.30;99.90;;;;;;5054700;28;20236;-75
2024/04/04 11:09:31;;;;;;;6.00;5.38;;;13.20;99.90;;;;;;5049050;28;20199;-75
2024/04/04 11:12:00;;;;;;;6.38;5.10;;;13.20;99.90;;;;;;5065634;28;20203;-75
2024/04/04 11:14:26;;;;;;;7.45;5.38;;;13.10;99.90;;;;;;5066778;28;20250;-74
2024/04/04 11:16:55;;;;;;;7.20;5.68;;;13.10;99.90;;;;;;5071726;28;20231;-73
2024/04/04 11:19:23;;;;;;;5.25;4.80;;;13.10;99.90;;;;;;5068618;28;20218;-76
2024/04/04 11:21:52;;;;;;;5.90;5.35;;;13.10;99.90;;;;;;5056686;28;20203;-76
2024/04/04 11:24:19;;;;;;;6.93;6.35;;;13.20;99.90;;;;;;5054105;28;20729;-76
2024/04/04 11:26:46;;;;;;;5.38;4.88;;;13.20;99.90;;;;;;5055886;28;20596;-76
2024/04/04 11:29:12;;;;;;;6.45;5.95;;;13.40;99.90;;;;;;5053693;28;20216;-77
2024/04/04 11:31:39;;;;;;;6.38;5.10;;;13.30;99.90;;;;;;5053490;28;20227;-76
2024/04/04 11:34:06;;;;;;;5.90;5.40;;;13.60;99.90;;;;;;5053946;28;20261;-77
2024/04/04 11:36:34;;;;;;;6.45;4.80;;;13.70;99.90;;;;;;5053856;28;20212;-77
2024/04/04 11:39:01;;;;;;;4.88;4.43;;;13.90;99.90;;;;;;5054479;28;20664;-73
2024/04/04 11:41:28;;;;;;;4.97;4.55;;;13.90;99.90;;;;;;5047169;28;20572;-74
2024/04/04 11:43:54;;;;;;;7.85;4.80;;;14.00;99.90;;;;;;5053732;28;20200;-76
2024/04/04 11:46:22;;;;;;;4.60;4.17;;;13.90;99.90;;;;;;5053473;28;20293;-77
2024/04/04 11:48:48;;;;;;;5.35;4.80;;;14.00;99.90;;;;;;5054343;28;20843;-75
2024/04/04 11:51:15;;;;;;;4.35;4.05;;;14.00;99.90;;;;;;5053693;28;20254;-75
2024/04/04 11:53:41;;;;;;;5.85;4.80;;;13.90;99.90;;;;;;5052842;28;20277;-76
2024/04/04 11:56:09;;;;;;;6.68;6.07;;;13.80;99.90;;;;;;5052784;28;20233;-75
2024/04/04 11:58:38;;;;;;;6.30;5.63;;;13.80;99.90;;;;;;5052806;28;20211;-78
2024/04/04 12:01:05;;;;;;;4.82;4.43;;;13.70;99.90;;;;;;5044800;28;20220;-75
2024/04/04 12:03:32;;;;;;;7.72;6.38;;;13.60;99.90;;;;;;5053219;28;20209;-77
2024/04/04 12:05:59;;;;;;;6.10;5.60;;;13.50;99.90;;;;;;5053884;28;20228;-74
2024/04/04 12:08:25;;;;;;;5.75;5.28;;;13.50;99.90;;;;;;5049810;28;20210;-75
2024/04/04 12:10:52;;;;;;;5.50;5.10;;;13.50;99.90;;;;;;5057709;28;20620;-77
2024/04/04 12:13:20;;;;;;;7.07;6.40;;;13.50;99.90;;;;;;5058601;28;20238;-76
2024/04/04 12:15:50;;;;;;;7.40;6.75;;;13.50;99.90;;;;;;5057387;28;20224;-75
2024/04/04 12:21:05;;;;;;;5.15;4.75;;;13.60;99.90;;;;;;5036858;28;20196;-74
2024/04/04 12:23:32;;;;;;;3.17;2.95;;;14.00;99.90;;;;;;5057195;28;20254;-74
2024/04/04 12:25:58;;;;;;;3.33;3.13;;;14.30;99.90;;;;;;5054196;28;20641;-74
2024/04/04 12:28:27;;;;;;;3.80;2.90;;;14.60;99.90;;;;;;5057266;28;20196;-75
2024/04/04 12:30:53;;;;;;;3.42;2.70;;;14.70;99.90;;;;;;5057678;28;20199;-77
2024/04/04 12:33:20;;;;;;;2.83;2.10;;;14.60;99.90;;;;;;5055829;28;20261;-77
2024/04/04 12:35:46;;;;;;;2.80;2.40;;;14.80;99.90;;;;;;5057354;28;20872;-75
2024/04/04 12:38:13;;;;;;;4.35;2.42;;;14.80;99.90;;;;;;5056679;28;20245;-74
2024/04/04 12:40:39;;;;;;;3.75;2.97;;;14.90;99.90;;;;;;5058327;28;20204;-77
2024/04/04 12:43:06;;;;;;;4.60;2.80;;;15.00;99.90;;;;;;5056349;28;20701;-76
2024/04/04 12:45:33;;;;;;;3.70;2.22;;;15.10;99.90;;;;;;5056683;28;20278;-76
2024/04/04 12:48:00;;;;;;;4.77;2.97;;;15.20;99.90;;;;;;5056904;28;20204;-78
2024/04/04 12:50:26;;;;;;;4.60;2.80;;;15.50;99.90;;;;;;5056546;28;20446;-77
2024/04/04 12:52:53;;;;;;;3.40;2.70;;;15.60;99.90;;;;;;5055856;28;20447;-76
2024/04/04 12:55:20;;;;;;;3.53;2.33;;;15.70;99.90;;;;;;5056188;28;20494;-77
2024/04/04 12:57:48;;;;;;;3.03;2.50;;;15.30;99.90;;;;;;5056530;28;20449;-79
2024/04/04 13:00:15;;;;;;;5.57;2.70;;;15.10;99.90;;;;;;5056753;28;20862;-77
2024/04/04 13:02:44;;;;;;;3.83;3.00;;;14.80;99.90;;;;;;5056125;28;20442;-75